Miraero Ace — 3FIH4 — position and weather

sailwx.info

Track history (hours):
 
Tides and Currents Weather Stations Pressure Air Temp Water Temp Dewpoint Dewpoint Depression Visibility Wind Speed Wind Dir Waves Ship Positions

Miraero Ace

Last reported at 2016-May-02 21:33 UTC. Time now 2016-May-27 14:14 UTC.
Position N 01°57' E 102°16'.
Warning: this ship's position is 24 days out of date.

Length 229 m; draft 14.4 m.

Type: Ship. MMSI: 373216000.

Date/timePositionNaut miles runAvg speedWind from/ knotsBaromVisibWave heightAir tempDewpointWater temp
2016-May-02 21:33N 01°57' E 102°16'1111.1
2016-May-02 20:32N 01°52' E 102°26'8311.8
2016-May-02 13:33N 01°11' E 103°38'1010.5
2016-May-02 12:33N 01°10' E 103°48'1312.7
2016-May-02 11:33N 01°16' E 103°60'2 1.7
2016-May-02 10:17N 01°17' E 104°01'0 0.0
2016-May-02 09:05N 01°17' E 104°01'0 0.1
2016-May-02 05:29N 01°17' E 104°01'0 0.1
2016-May-02 04:29N 01°17' E 104°02'0 0.0
2016-May-02 03:32N 01°17' E 104°02'0 0.0
2016-May-02 02:23N 01°17' E 104°02'0 0.1
2016-May-02 00:33N 01°17' E 104°01'4 3.9
2016-May-01 23:33N 01°16' E 103°58'5 5.5
2016-May-01 22:33N 01°16' E 104°03'8 6.9
2016-May-01 21:20N 01°17' E 104°12'  
Track history (hours):
 
Tides and Currents Weather Stations Pressure Air Temp Water Temp Dewpoint Dewpoint Depression Visibility Wind Speed Wind Dir Waves Ship Positions

Miraero Ace

Last reported at 2016-May-02 21:33 UTC. Time now 2016-May-27 14:14 UTC.
Position N 01°57' E 102°16'.
Warning: this ship's position is 24 days out of date.

Length 229 m; draft 14.4 m.

Type: Ship. MMSI: 373216000.

Date/timePositionNaut miles runAvg speedWind from/ knotsBaromVisibWave heightAir tempDewpointWater temp
2016-May-02 21:33N 01°57' E 102°16'1111.1
2016-May-02 20:32N 01°52' E 102°26'8311.8
2016-May-02 13:33N 01°11' E 103°38'1010.5
2016-May-02 12:33N 01°10' E 103°48'1312.7
2016-May-02 11:33N 01°16' E 103°60'2 1.7
2016-May-02 10:17N 01°17' E 104°01'0 0.0
2016-May-02 09:05N 01°17' E 104°01'0 0.1
2016-May-02 05:29N 01°17' E 104°01'0 0.1
2016-May-02 04:29N 01°17' E 104°02'0 0.0
2016-May-02 03:32N 01°17' E 104°02'0 0.0
2016-May-02 02:23N 01°17' E 104°02'0 0.1
2016-May-02 00:33N 01°17' E 104°01'4 3.9
2016-May-01 23:33N 01°16' E 103°58'5 5.5
2016-May-01 22:33N 01°16' E 104°03'8 6.9
2016-May-01 21:20N 01°17' E 104°12'  

Dump ship's entire track history